This is the latest recevied weather packets stored in our database for station/object KC1DMA. If no packets are shown the sender has not sent any weather packets the latest 10 day(s).
| Time | Temp. | Humidity | Pressure | Rain* | Wind** | Luminosity | Snow |
|---|---|---|---|---|---|---|---|
| 1777921256 | 20° C | 38% | 1011.3 hPa | - | - | 707 W/m² | - |
| 1777920953 | 20° C | 38% | 1011.2 hPa | - | - | 719 W/m² | - |
| 1777920650 | 20° C | 37% | 1011.2 hPa | - | - | 727 W/m² | - |
| 1777920345 | 20° C | 37% | 1011.2 hPa | - | - | 735 W/m² | - |
| 1777920040 | 20° C | 37% | 1011.4 hPa | - | - | 739 W/m² | - |
| 1777919738 | 21.11° C | 37% | 1011.3 hPa | - | - | 745 W/m² | - |
| 1777919436 | 20.56° C | 38% | 1011.4 hPa | - | - | 763 W/m² | - |
| 1777919132 | 20.56° C | 37% | 1011.4 hPa | - | - | 768 W/m² | - |
| 1777918830 | 20° C | 38% | 1011.6 hPa | - | - | 785 W/m² | - |
| 1777918527 | 20° C | 39% | 1011.4 hPa | - | - | 811 W/m² | - |
| 1777918225 | 20° C | 36% | 1011.7 hPa | - | - | 793 W/m² | - |
| 1777917924 | 20° C | 39% | 1011.7 hPa | - | - | 813 W/m² | - |
| 1777917622 | 20.56° C | 36% | 1012.1 hPa | - | - | 817 W/m² | - |
| 1777917319 | 20° C | 37% | 1011.9 hPa | - | - | 805 W/m² | - |
| 1777917016 | 20° C | 37% | 1011.7 hPa | - | - | 818 W/m² | - |
| 1777916714 | 20° C | 34% | 1011.8 hPa | - | - | 838 W/m² | - |
| 1777916411 | 20° C | 35% | 1011.9 hPa | - | - | 827 W/m² | - |
| 1777916107 | 20° C | 38% | 1012.2 hPa | - | - | 870 W/m² | - |
| 1777915805 | 19.44° C | 36% | 1012 hPa | - | - | 854 W/m² | - |
| 1777915500 | 20° C | 36% | 1012.1 hPa | - | - | 841 W/m² | - |
| 1777915197 | 18.89° C | 35% | 1012 hPa | - | - | 839 W/m² | - |
| 1777914894 | 18.89° C | 36% | 1012 hPa | - | - | 844 W/m² | - |
| 1777914591 | 18.89° C | 34% | 1012.1 hPa | - | - | 843 W/m² | - |
| 1777914287 | 18.89° C | 36% | 1012.1 hPa | - | - | 863 W/m² | - |
| 1777913985 | 18.89° C | 36% | 1012.1 hPa | - | - | 855 W/m² | - |
* Rain since midnight (hover to see other rain measurements)
** Current wind speed in m/s (hover to see current wind gust speed)